Terminal Aerodrome Forecast
Issued by NWS Missoula, MT

Home | Current Version | Previous Version | Text Only | Print | Product List | Glossary On
Versions: 1 2 3 4 5 6 7 8 9 10 11 12 13 14 15
000
FTUS45 KMSO 021726
TAFBTM
TAF
KBTM 021726Z 0218/0318 14005KT P6SM BKN150
     FM022000 04008KT P6SM VCSH BKN050 OVC100
     FM030000 34014G20KT 1 1/2SM -SN BR OVC025
     FM030200 34016G25KT 1/2SM SN BKN010 OVC025
     FM030500 34010KT 2SM -SN BKN020 OVC030=

USA.gov is the U.S. government's official web portal to all federal, state and local government web resources and services.